createdAt,value
2022-07-26T00:01:51.762Z,0.84
2022-07-26T00:06:58.001Z,0.94
2022-07-26T00:12:04.242Z,0.91
2022-07-26T00:17:10.490Z,0.92
2022-07-26T00:22:16.702Z,0.96
2022-07-26T00:27:22.995Z,0.72
2022-07-26T00:32:28.967Z,0.77
2022-07-26T00:37:35.353Z,0.79
2022-07-26T00:42:41.561Z,0.81
2022-07-26T00:47:47.790Z,0.79
2022-07-26T00:52:54.010Z,0.76
2022-07-26T00:58:00.475Z,0.97
2022-07-26T01:03:06.720Z,0.83
2022-07-26T01:08:13.009Z,0.83
2022-07-26T01:13:19.233Z,0.86
2022-07-26T01:18:25.496Z,0.82
2022-07-26T01:23:31.729Z,0.74
2022-07-26T01:28:37.554Z,0.77
2022-07-26T01:33:46.215Z,0.72
2022-07-26T01:38:52.460Z,0.94
2022-07-26T01:43:58.682Z,1.00
2022-07-26T01:49:04.997Z,0.83
2022-07-26T01:54:11.687Z,0.83
2022-07-26T01:59:16.993Z,0.76
2022-07-26T02:04:23.263Z,0.71
2022-07-26T02:09:31.498Z,0.77
2022-07-26T02:14:35.263Z,0.66
2022-07-26T02:19:41.501Z,0.83
2022-07-26T02:24:47.789Z,0.68
2022-07-26T02:29:53.995Z,0.88
2022-07-26T02:35:00.364Z,0.71
2022-07-26T02:40:06.687Z,1.24
2022-07-26T02:45:12.875Z,0.77
2022-07-26T02:50:19.107Z,0.73
2022-07-26T02:55:25.365Z,0.73
2022-07-26T03:00:31.661Z,0.80
2022-07-26T03:05:37.872Z,0.82
2022-07-26T03:10:44.117Z,0.77
2022-07-26T03:15:50.363Z,0.80
2022-07-26T03:20:56.602Z,0.83
2022-07-26T03:26:02.805Z,0.72
2022-07-26T03:31:09.178Z,0.82
2022-07-26T03:36:16.326Z,0.81
2022-07-26T03:41:21.270Z,0.71
2022-07-26T03:46:27.704Z,0.96
2022-07-26T03:56:34.465Z,0.76
2022-07-26T04:01:40.747Z,0.86
2022-07-26T04:06:46.996Z,0.83
2022-07-26T04:11:53.365Z,0.83
2022-07-26T04:16:59.691Z,0.75
2022-07-26T04:22:05.889Z,0.77
2022-07-26T04:27:12.255Z,0.95
2022-07-26T04:32:18.576Z,1.39
2022-07-26T04:37:26.020Z,0.80
2022-07-26T04:42:31.997Z,0.81
2022-07-26T04:47:38.240Z,0.87
2022-07-26T04:52:44.620Z,1.03
2022-07-26T04:57:50.907Z,0.83
2022-07-26T05:02:57.202Z,0.98
2022-07-26T05:08:03.533Z,0.93
2022-07-26T05:13:09.778Z,0.93
2022-07-26T05:18:16.155Z,0.92
2022-07-26T05:23:22.483Z,1.09
2022-07-26T05:28:28.802Z,0.93
2022-07-26T05:33:35.214Z,1.06
2022-07-26T05:38:44.464Z,1.09
2022-07-26T05:43:50.648Z,0.98
2022-07-26T05:48:57.027Z,1.07
2022-07-26T05:54:03.303Z,1.26
2022-07-26T05:59:09.569Z,1.26
2022-07-26T06:04:15.850Z,1.18
2022-07-26T06:09:22.078Z,1.36
2022-07-26T06:14:28.381Z,1.34
2022-07-26T06:19:34.752Z,1.46
2022-07-26T06:24:42.106Z,1.52
2022-07-26T06:29:48.490Z,1.81
2022-07-26T06:34:54.695Z,1.89
2022-07-26T06:40:01.012Z,1.84
2022-07-26T06:45:07.289Z,2.13
2022-07-26T06:50:13.540Z,2.32
2022-07-26T06:55:19.900Z,2.41
2022-07-26T07:00:26.211Z,2.29
2022-07-26T07:05:32.478Z,2.25
2022-07-26T07:10:38.727Z,2.30
2022-07-26T07:15:44.932Z,2.45
2022-07-26T07:20:51.215Z,2.27
2022-07-26T07:25:57.435Z,2.22
2022-07-26T07:31:03.948Z,2.45
2022-07-26T07:36:10.115Z,2.28
2022-07-26T07:41:16.496Z,2.21
2022-07-26T07:46:22.851Z,2.59
2022-07-26T07:51:29.273Z,2.27
2022-07-26T07:56:35.504Z,2.27
2022-07-26T08:01:41.894Z,2.22
2022-07-26T08:06:50.360Z,2.33
2022-07-26T08:11:53.877Z,2.57
2022-07-26T08:17:00.198Z,2.56
2022-07-26T08:22:06.441Z,2.70
2022-07-26T08:27:12.864Z,2.32
2022-07-26T08:32:19.583Z,2.27
2022-07-26T08:37:25.962Z,2.47
2022-07-26T08:42:32.288Z,2.76
2022-07-26T08:47:55.233Z,2.46
2022-07-26T08:52:44.315Z,2.57
2022-07-26T08:57:50.609Z,2.61
2022-07-26T09:02:56.999Z,2.93
2022-07-26T09:08:03.177Z,2.76
2022-07-26T09:13:09.539Z,3.24
2022-07-26T09:18:15.816Z,3.16
2022-07-26T09:23:22.037Z,3.81
2022-07-26T09:28:28.361Z,4.34
2022-07-26T09:33:34.691Z,3.82
2022-07-26T09:38:40.973Z,3.93
2022-07-26T09:43:50.297Z,4.19
2022-07-26T09:49:09.889Z,4.08
2022-07-26T09:53:58.829Z,4.47
2022-07-26T09:59:05.036Z,4.19
2022-07-26T10:04:11.728Z,4.66
2022-07-26T10:09:17.123Z,4.36
2022-07-26T10:14:23.378Z,4.12
2022-07-26T10:19:29.839Z,3.49
2022-07-26T10:24:35.701Z,3.42
2022-07-26T10:29:41.472Z,4.03
2022-07-26T10:34:47.728Z,3.87
2022-07-26T10:39:54.068Z,4.34
2022-07-26T10:45:00.369Z,3.94
2022-07-26T10:50:06.735Z,4.02
2022-07-26T10:55:12.990Z,3.95
2022-07-26T11:00:19.295Z,3.28
2022-07-26T11:05:25.548Z,3.48
2022-07-26T11:10:31.761Z,3.14
2022-07-26T11:15:38.064Z,3.04
2022-07-26T11:20:44.269Z,3.10
2022-07-26T11:25:50.546Z,3.04
2022-07-26T11:30:56.824Z,2.74
2022-07-26T11:36:03.252Z,2.52
2022-07-26T11:41:09.476Z,2.86
2022-07-26T11:46:15.790Z,2.80
2022-07-26T11:51:22.946Z,2.31
2022-07-26T11:56:29.254Z,2.33
2022-07-26T12:01:35.488Z,2.11
2022-07-26T12:06:41.806Z,1.73
2022-07-26T12:11:48.078Z,2.39
2022-07-26T12:16:54.370Z,2.15
2022-07-26T12:22:00.612Z,2.66
2022-07-26T12:27:06.831Z,1.85
2022-07-26T12:32:13.085Z,2.75
2022-07-26T12:37:19.359Z,1.81
2022-07-26T12:42:33.291Z,2.25
2022-07-26T12:47:31.447Z,2.59
2022-07-26T12:52:37.725Z,2.30
2022-07-26T12:57:46.126Z,2.13
2022-07-26T13:02:49.845Z,2.94
2022-07-26T13:07:59.179Z,2.04
2022-07-26T13:13:05.469Z,2.42
2022-07-26T13:18:12.844Z,1.93
2022-07-26T13:23:21.335Z,1.66
2022-07-26T13:28:24.956Z,1.92
2022-07-26T13:33:31.234Z,1.84
2022-07-26T13:38:37.465Z,1.84
2022-07-26T13:43:43.785Z,1.39
2022-07-26T13:49:00.755Z,1.81
2022-07-26T13:53:55.784Z,1.99
2022-07-26T13:59:02.008Z,1.65
2022-07-26T14:04:08.405Z,1.63
2022-07-26T14:09:14.533Z,1.46
2022-07-26T14:14:20.884Z,1.64
2022-07-26T14:19:27.191Z,1.84
2022-07-26T14:24:33.449Z,2.21
2022-07-26T14:29:39.653Z,1.75
2022-07-26T14:34:45.930Z,1.84
2022-07-26T14:39:52.238Z,1.28
2022-07-26T14:44:58.494Z,1.32
2022-07-26T14:50:07.145Z,1.31
2022-07-26T14:55:11.741Z,1.19
2022-07-26T15:00:18.048Z,1.35
2022-07-26T15:05:24.302Z,1.55
2022-07-26T15:10:30.618Z,1.28
2022-07-26T15:15:36.910Z,1.64
2022-07-26T15:20:43.211Z,1.62
2022-07-26T15:25:49.427Z,1.44
2022-07-26T15:30:55.680Z,1.08
2022-07-26T15:36:05.946Z,0.96
2022-07-26T15:41:07.639Z,0.82
2022-07-26T15:46:14.079Z,0.59
2022-07-26T15:51:19.812Z,0.63
2022-07-26T15:56:26.038Z,0.72
2022-07-26T16:01:32.386Z,0.94
2022-07-26T16:06:38.653Z,0.70
2022-07-26T16:11:45.020Z,0.68
2022-07-26T16:16:51.327Z,1.14
2022-07-26T16:21:57.530Z,0.60
2022-07-26T16:27:04.181Z,0.65
2022-07-26T16:32:10.501Z,0.62
2022-07-26T16:37:16.687Z,0.71
2022-07-26T16:42:22.985Z,0.77
2022-07-26T16:47:29.245Z,0.63
2022-07-26T16:52:35.568Z,0.67
2022-07-26T16:57:41.804Z,0.85
2022-07-26T17:02:48.032Z,0.76
2022-07-26T17:07:54.346Z,0.88
2022-07-26T17:13:00.681Z,0.64
2022-07-26T17:18:06.923Z,0.58
2022-07-26T17:23:13.310Z,0.68
2022-07-26T17:28:19.585Z,0.74
2022-07-26T17:33:25.929Z,0.74
2022-07-26T17:38:34.860Z,0.73
2022-07-26T17:43:40.139Z,0.63
2022-07-26T17:48:47.561Z,0.48
2022-07-26T17:53:53.787Z,0.57
2022-07-26T17:59:00.129Z,0.62
2022-07-26T18:04:06.745Z,0.63
2022-07-26T18:09:13.668Z,0.54
2022-07-26T18:14:18.904Z,0.66
2022-07-26T18:19:25.157Z,0.55
2022-07-26T18:24:31.417Z,0.64
2022-07-26T18:29:37.706Z,0.67
2022-07-26T18:34:51.630Z,0.53
2022-07-26T18:39:52.826Z,0.47
2022-07-26T18:44:55.477Z,0.79
2022-07-26T18:50:01.731Z,0.52
2022-07-26T18:55:07.554Z,0.62
2022-07-26T19:00:13.942Z,0.54
2022-07-26T19:05:20.209Z,0.64
2022-07-26T19:10:26.471Z,0.67
2022-07-26T19:15:36.096Z,0.72
2022-07-26T19:20:42.242Z,0.70
2022-07-26T19:25:48.466Z,0.54
2022-07-26T19:30:54.742Z,0.60
2022-07-26T19:36:01.005Z,0.73
2022-07-26T19:41:11.525Z,0.69
2022-07-26T19:46:15.219Z,0.86
2022-07-26T19:51:21.184Z,0.74
2022-07-26T19:56:27.031Z,0.74
2022-07-26T20:01:33.484Z,0.82
2022-07-26T20:06:39.785Z,0.65
2022-07-26T20:11:47.044Z,0.68
2022-07-26T20:16:56.334Z,0.70
2022-07-26T20:21:59.288Z,0.75
2022-07-26T20:27:05.657Z,0.71
2022-07-26T20:32:12.087Z,0.71
2022-07-26T20:37:18.492Z,0.74
2022-07-26T20:42:26.594Z,0.61
2022-07-26T20:47:31.875Z,1.12
2022-07-26T20:52:38.237Z,1.03
2022-07-26T20:57:44.500Z,0.86
2022-07-26T21:02:50.841Z,0.81
2022-07-26T21:07:59.163Z,0.74
2022-07-26T21:13:02.863Z,0.82
2022-07-26T21:18:09.128Z,1.03
2022-07-26T21:23:17.719Z,0.82
2022-07-26T21:28:20.839Z,0.76
2022-07-26T21:33:26.674Z,0.94
2022-07-26T21:38:33.042Z,0.83
2022-07-26T21:43:39.413Z,0.87
2022-07-26T21:48:45.760Z,0.96
2022-07-26T21:53:52.065Z,0.94
2022-07-26T21:58:58.389Z,0.92
2022-07-26T22:04:04.625Z,0.98
2022-07-26T22:09:11.075Z,0.79
2022-07-26T22:14:17.532Z,1.06
2022-07-26T22:19:23.358Z,0.96
2022-07-26T22:24:29.658Z,0.94
2022-07-26T22:29:38.990Z,0.99
2022-07-26T22:34:41.674Z,1.06
2022-07-26T22:39:47.907Z,0.97
2022-07-26T22:44:54.253Z,0.91
2022-07-26T22:50:00.502Z,1.01
2022-07-26T22:55:06.883Z,1.00
2022-07-26T23:00:13.089Z,0.97
2022-07-26T23:05:19.589Z,0.88
2022-07-26T23:10:25.660Z,1.06
2022-07-26T23:15:31.899Z,1.13
2022-07-26T23:20:38.180Z,1.03
2022-07-26T23:25:45.785Z,0.81
2022-07-26T23:30:51.619Z,0.81
2022-07-26T23:35:57.854Z,0.87
2022-07-26T23:41:04.045Z,0.98
2022-07-26T23:46:10.386Z,0.99
2022-07-26T23:51:16.647Z,0.82
2022-07-26T23:56:23.530Z,0.91
